Time;durP1;ratioP1;P1;durP2;ratioP2;P2;SDS_P1;SDS_P2;PMS_P1;PMS_P2;Temp;Humidity;BMP_temperature;BMP_pressure;BME280_temperature;BME280_humidity;BME280_pressure;Samples;Min_cycle;Max_cycle;Signal;HPM_P1;HPM_P2
2023/03/28 00:01:51;;;;;;;2.65;1.30;;;12.50;53.60;;;;;;6214522;23;20423;-87
2023/03/28 00:04:21;;;;;;;1.77;1.10;;;12.50;54.30;;;;;;6213316;23;20004;-89
2023/03/28 00:06:47;;;;;;;;;;;12.50;53.90;;;;;;6215365;23;20023;-88
2023/03/28 00:09:13;;;;;;;1.92;1.08;;;12.50;53.80;;;;;;6188998;23;19900;-89
2023/03/28 00:11:39;;;;;;;3.00;1.40;;;12.50;54.20;;;;;;6216823;23;20465;-88
2023/03/28 00:14:07;;;;;;;3.15;1.65;;;12.50;55.10;;;;;;6216411;23;20001;-88
2023/03/28 00:16:38;;;;;;;3.67;1.50;;;12.50;55.30;;;;;;6216152;23;20000;-88
2023/03/28 00:19:10;;;;;;;1.98;1.38;;;12.40;55.20;;;;;;6215626;23;20009;-88
2023/03/28 00:21:40;;;;;;;1.60;1.10;;;12.40;55.30;;;;;;6216442;23;20071;-87
2023/03/28 00:24:09;;;;;;;1.88;1.10;;;12.20;54.70;;;;;;6216740;23;20435;-89
2023/03/28 00:26:36;;;;;;;2.13;1.40;;;12.20;53.40;;;;;;6215461;23;20012;-87
2023/03/28 00:29:04;;;;;;;1.75;1.13;;;12.30;54.10;;;;;;6215200;23;20054;-83
2023/03/28 00:31:33;;;;;;;2.25;1.27;;;12.30;54.00;;;;;;6215585;23;19996;-83
2023/03/28 00:33:59;;;;;;;3.05;1.25;;;12.30;53.40;;;;;;6214256;23;20016;-84
2023/03/28 00:36:28;;;;;;;2.47;0.98;;;12.20;52.30;;;;;;6215576;23;20008;-83
2023/03/28 00:38:55;;;;;;;1.85;1.13;;;12.20;52.90;;;;;;6215748;23;20004;-83
2023/03/28 00:41:22;;;;;;;2.15;1.13;;;12.20;53.00;;;;;;6214998;23;20093;-84
2023/03/28 00:43:51;;;;;;;1.67;1.02;;;12.20;53.80;;;;;;6214199;23;20005;-84
2023/03/28 00:46:31;;;;;;;2.88;1.30;;;12.20;54.20;;;;;;6215238;23;20009;-84
2023/03/28 00:49:11;;;;;;;2.40;1.33;;;12.10;54.00;;;;;;6216235;23;20000;-84
2023/03/28 00:51:46;;;;;;;2.00;1.02;;;12.10;54.00;;;;;;6214613;23;20090;-84
2023/03/28 00:54:16;;;;;;;3.63;1.27;;;12.00;54.40;;;;;;6214703;23;20000;-84
2023/03/28 00:56:44;;;;;;;3.70;2.05;;;11.90;54.40;;;;;;6215493;23;20005;-84
2023/03/28 00:59:13;;;;;;;1.73;1.10;;;11.90;55.00;;;;;;6215762;23;20031;-83
2023/03/28 01:01:39;;;;;;;2.40;1.30;;;;;;;;;;6214604;23;20019;-84
2023/03/28 01:04:08;;;;;;;2.83;1.17;;;11.90;54.80;;;;;;6214918;23;20091;-83
2023/03/28 01:06:47;;;;;;;2.35;1.52;;;11.90;55.50;;;;;;6213827;23;20342;-84
2023/03/28 01:09:15;;;;;;;5.72;1.30;;;11.90;55.60;;;;;;6215055;23;20080;-83
2023/03/28 01:11:44;;;;;;;1.15;0.90;;;11.90;56.10;;;;;;6215597;23;20023;-85
2023/03/28 01:14:14;;;;;;;1.60;1.20;;;11.90;56.30;;;;;;6215445;23;20027;-85
2023/03/28 01:16:41;;;;;;;1.75;1.30;;;11.90;55.90;;;;;;6215396;23;20094;-86
2023/03/28 01:19:20;;;;;;;2.55;1.50;;;11.80;54.50;;;;;;6215967;23;20008;-85
2023/03/28 01:22:14;;;;;;;2.10;1.40;;;11.80;53.60;;;;;;6215742;23;20000;-85
2023/03/28 01:24:43;;;;;;;1.73;1.23;;;11.80;53.90;;;;;;6215232;23;20071;-84
2023/03/28 01:27:35;;;;;;;1.90;0.93;;;11.80;51.90;;;;;;6215994;23;20015;-84
2023/03/28 01:30:16;;;;;;;1.70;1.20;;;11.80;52.40;;;;;;6216424;23;20020;-84
2023/03/28 01:33:10;;;;;;;2.08;1.17;;;11.80;53.00;;;;;;6216163;23;20067;-85
2023/03/28 01:36:00;;;;;;;3.15;1.40;;;11.80;53.80;;;;;;6168671;23;20070;-85
2023/03/28 01:38:36;;;;;;;1.33;1.00;;;11.80;53.70;;;;;;6214987;23;20000;-85
2023/03/28 01:41:20;;;;;;;1.13;0.90;;;11.80;53.90;;;;;;6214924;23;20216;-84
2023/03/28 01:44:16;;;;;;;3.30;1.33;;;11.70;53.80;;;;;;6217071;23;20047;-83
2023/03/28 01:47:06;;;;;;;2.20;1.40;;;11.60;53.90;;;;;;6217124;23;20066;-85
2023/03/28 01:49:51;;;;;;;1.90;1.13;;;11.70;54.00;;;;;;6226169;23;20015;-84
2023/03/28 01:52:24;;;;;;;2.22;1.05;;;11.70;53.90;;;;;;6233544;23;20004;-86
2023/03/28 01:55:08;;;;;;;2.75;1.23;;;11.70;54.20;;;;;;6217519;23;20054;-87
2023/03/28 01:58:03;;;;;;;1.65;0.93;;;11.70;54.50;;;;;;6217101;23;20011;-87
2023/03/28 02:00:33;;;;;;;2.55;1.10;;;11.70;54.10;;;;;;6217423;23;20001;-86
2023/03/28 02:03:13;;;;;;;2.28;1.40;;;11.60;54.40;;;;;;6217080;23;20000;-87
2023/03/28 02:05:42;;;;;;;2.05;1.30;;;11.60;54.00;;;;;;6190169;23;20041;-86
2023/03/28 02:08:09;;;;;;;2.05;1.20;;;11.60;54.10;;;;;;6215051;23;20015;-86
2023/03/28 02:10:39;;;;;;;1.40;1.13;;;11.60;53.70;;;;;;6217253;23;20001;-89
2023/03/28 02:13:19;;;;;;;1.65;1.27;;;11.60;53.70;;;;;;6218082;23;20024;-87
2023/03/28 02:15:51;;;;;;;3.15;0.90;;;11.50;53.70;;;;;;6217421;23;20056;-87
2023/03/28 02:18:35;;;;;;;1.45;1.02;;;11.50;53.40;;;;;;6214896;23;20082;-86
2023/03/28 02:21:10;;;;;;;1.15;0.90;;;11.50;53.90;;;;;;6215707;23;20040;-87
2023/03/28 02:23:57;;;;;;;2.65;1.40;;;11.50;54.00;;;;;;6216337;23;20000;-86
2023/03/28 02:26:24;;;;;;;2.28;0.82;;;11.50;54.20;;;;;;6213274;23;20163;-86
2023/03/28 02:28:54;;;;;;;3.60;1.15;;;11.50;54.00;;;;;;6215273;23;20044;-85
2023/03/28 02:31:22;;;;;;;2.03;1.30;;;11.50;54.00;;;;;;6213895;23;20009;-86
2023/03/28 02:33:49;;;;;;;1.65;1.20;;;11.50;54.30;;;;;;6218119;23;19997;-89
2023/03/28 02:36:39;;;;;;;1.70;1.10;;;11.50;54.00;;;;;;6220995;23;20092;-89
2023/03/28 02:39:29;;;;;;;3.42;0.98;;;11.50;54.50;;;;;;6221981;23;20011;-88
2023/03/28 02:41:58;;;;;;;;;;;11.50;54.80;;;;;;6224483;23;20000;-88
2023/03/28 02:44:24;;;;;;;1.20;0.93;;;11.40;55.30;;;;;;6223862;23;20262;-88
2023/03/28 02:47:20;;;;;;;5.40;1.20;;;11.40;55.70;;;;;;6219437;23;20450;-88
2023/03/28 02:50:11;;;;;;;4.38;1.85;;;11.40;54.70;;;;;;6215240;23;20029;-88
2023/03/28 02:52:57;;;;;;;3.00;1.27;;;11.30;54.70;;;;;;6217032;23;20004;-87
2023/03/28 02:55:55;;;;;;;4.03;1.20;;;11.30;54.70;;;;;;6195882;23;20416;-87
2023/03/28 02:58:41;;;;;;;3.17;1.20;;;11.30;53.70;;;;;;6215823;23;20068;-87
2023/03/28 03:01:09;;;;;;;1.88;1.10;;;11.30;53.00;;;;;;6215970;23;20001;-87
2023/03/28 03:03:35;;;;;;;2.70;1.20;;;11.30;53.10;;;;;;6189397;23;20011;-86
2023/03/28 03:06:05;;;;;;;3.35;1.42;;;11.10;53.40;;;;;;6215688;23;20000;-88
2023/03/28 03:08:31;;;;;;;1.35;1.15;;;11.10;54.10;;;;;;6218573;23;19997;-88
2023/03/28 03:10:57;;;;;;;1.63;1.20;;;11.10;54.40;;;;;;6217475;23;20001;-85
2023/03/28 03:13:23;;;;;;;2.60;1.10;;;11.00;53.90;;;;;;6221882;23;20020;-89
2023/03/28 03:15:49;;;;;;;3.38;1.00;;;11.10;53.80;;;;;;6194071;23;20007;-88
2023/03/28 03:18:18;;;;;;;4.03;1.17;;;11.10;52.80;;;;;;6191517;23;20035;-87
2023/03/28 03:20:46;;;;;;;0.98;0.70;;;11.10;51.00;;;;;;6217477;23;20412;-88
2023/03/28 03:23:12;;;;;;;1.52;1.00;;;11.10;51.30;;;;;;6216606;23;20020;-88
2023/03/28 03:25:38;;;;;;;2.42;1.30;;;11.10;50.90;;;;;;6217284;23;20003;-86
2023/03/28 03:28:04;;;;;;;1.60;1.17;;;11.10;50.50;;;;;;6209471;23;20431;-87
2023/03/28 03:30:30;;;;;;;3.13;1.40;;;11.10;50.90;;;;;;6186804;23;19997;-87
2023/03/28 03:32:56;;;;;;;2.22;1.45;;;11.10;51.90;;;;;;6186335;23;20051;-87
2023/03/28 03:35:22;;;;;;;2.88;1.23;;;11.10;52.30;;;;;;6186347;23;20081;-87
2023/03/28 03:37:49;;;;;;;1.92;1.00;;;11.10;52.70;;;;;;6192660;23;20001;-86
2023/03/28 03:40:16;;;;;;;1.75;1.25;;;11.10;53.20;;;;;;6192598;23;20016;-85
2023/03/28 03:42:42;;;;;;;4.32;1.20;;;11.10;53.50;;;;;;6194029;23;20152;-86
2023/03/28 03:45:10;;;;;;;2.03;1.00;;;11.10;53.60;;;;;;6190965;23;20348;-84
2023/03/28 03:47:35;;;;;;;2.20;0.90;;;11.00;53.90;;;;;;6191474;23;20008;-85
2023/03/28 03:50:01;;;;;;;1.52;0.95;;;10.90;53.70;;;;;;6191850;23;20035;-87
2023/03/28 03:52:27;;;;;;;2.65;1.25;;;10.90;53.80;;;;;;6194130;23;19997;-87
2023/03/28 03:54:52;;;;;;;2.08;1.38;;;10.90;52.80;;;;;;6192498;23;20060;-85
2023/03/28 03:57:18;;;;;;;4.82;1.30;;;10.90;51.90;;;;;;6192655;23;20005;-85
2023/03/28 03:59:44;;;;;;;2.58;1.35;;;10.90;52.50;;;;;;6193190;23;20032;-85
2023/03/28 04:02:10;;;;;;;1.75;1.20;;;10.90;51.20;;;;;;6186863;23;20085;-87
2023/03/28 04:04:39;;;;;;;3.83;1.40;;;10.90;50.80;;;;;;6186924;23;20079;-86
2023/03/28 04:07:05;;;;;;;4.45;1.40;;;10.90;50.90;;;;;;6185855;23;20080;-88
2023/03/28 04:09:30;;;;;;;2.58;1.52;;;10.90;50.90;;;;;;6189455;23;20450;-88
2023/03/28 04:11:56;;;;;;;2.83;1.70;;;10.80;49.90;;;;;;6186284;23;20002;-87
2023/03/28 04:14:22;;;;;;;2.47;1.25;;;10.80;49.40;;;;;;6187077;23;20001;-86
2023/03/28 04:16:52;;;;;;;2.83;1.30;;;10.80;49.10;;;;;;6186630;23;20058;-86
2023/03/28 04:19:19;;;;;;;3.42;1.30;;;10.80;48.50;;;;;;6188783;23;20005;-88
2023/03/28 04:21:51;;;;;;;2.78;1.73;;;10.80;49.00;;;;;;6186803;23;20005;-87
2023/03/28 04:24:19;;;;;;;3.17;1.40;;;10.70;49.60;;;;;;6188624;23;20435;-87
2023/03/28 04:26:48;;;;;;;3.03;1.63;;;10.70;49.10;;;;;;6196266;23;20035;-85
2023/03/28 04:29:16;;;;;;;3.25;1.73;;;10.70;49.70;;;;;;6216351;23;20113;-88
2023/03/28 04:31:48;;;;;;;3.00;1.50;;;10.70;50.00;;;;;;6218181;23;20072;-87
2023/03/28 04:34:18;;;;;;;3.08;1.52;;;10.70;50.10;;;;;;6217081;23;20000;-86
2023/03/28 04:36:45;;;;;;;4.32;1.33;;;10.70;49.00;;;;;;6215177;23;20036;-86
2023/03/28 04:39:12;;;;;;;2.20;1.30;;;10.70;49.30;;;;;;6218997;23;20005;-86
2023/03/28 04:41:38;;;;;;;5.22;1.77;;;10.70;49.50;;;;;;6217180;23;20047;-87
2023/03/28 04:44:05;;;;;;;4.22;1.40;;;10.70;50.30;;;;;;6217271;23;20055;-86
2023/03/28 04:46:30;;;;;;;2.50;1.40;;;10.60;49.50;;;;;;6220201;23;20039;-87
2023/03/28 04:48:56;;;;;;;2.80;1.52;;;10.60;49.70;;;;;;6217275;23;20005;-87
2023/03/28 04:51:23;;;;;;;6.68;1.60;;;10.60;50.00;;;;;;6219331;23;20023;-88
2023/03/28 04:53:49;;;;;;;2.22;1.38;;;10.60;50.20;;;;;;6218012;23;20008;-87
2023/03/28 04:56:14;;;;;;;3.78;1.55;;;10.60;50.70;;;;;;6217133;23;20008;-86
2023/03/28 04:58:40;;;;;;;2.05;1.20;;;10.50;50.50;;;;;;6219011;23;20039;-87
2023/03/28 05:01:10;;;;;;;2.70;1.40;;;10.50;51.40;;;;;;6218337;23;20438;-87
2023/03/28 05:03:36;;;;;;;4.85;1.40;;;10.40;52.10;;;;;;6216573;23;20333;-87
2023/03/28 05:06:03;;;;;;;2.33;1.70;;;10.40;52.70;;;;;;6218399;23;20028;-87
2023/03/28 05:08:31;;;;;;;4.18;1.80;;;10.40;52.70;;;;;;6191463;23;20032;-87
2023/03/28 05:10:57;;;;;;;2.00;1.25;;;10.40;52.90;;;;;;6215614;23;20007;-85
2023/03/28 05:13:24;;;;;;;3.28;1.80;;;10.30;52.70;;;;;;6217685;23;20056;-86
2023/03/28 05:15:50;;;;;;;2.95;1.50;;;10.30;53.00;;;;;;6216815;23;20083;-85
2023/03/28 05:18:15;;;;;;;6.88;2.30;;;10.30;54.00;;;;;;6217765;23;20434;-87
2023/03/28 05:20:41;;;;;;;5.15;2.22;;;10.30;54.60;;;;;;6217821;23;20334;-86
2023/03/28 05:23:07;;;;;;;7.68;2.20;;;10.30;54.80;;;;;;6217376;23;19997;-87
2023/03/28 05:25:33;;;;;;;3.78;1.90;;;10.30;54.90;;;;;;6217303;23;20001;-87
2023/03/28 05:27:59;;;;;;;4.60;2.00;;;10.30;55.10;;;;;;6186410;23;20631;-87
2023/03/28 05:30:25;;;;;;;4.75;1.55;;;10.30;55.00;;;;;;6186998;23;20004;-85
2023/03/28 05:32:51;;;;;;;3.40;1.88;;;10.30;55.00;;;;;;6189124;23;20024;-86
2023/03/28 05:35:16;;;;;;;4.47;1.90;;;10.30;55.60;;;;;;6187200;23;20004;-86
2023/03/28 05:37:43;;;;;;;4.63;2.08;;;10.30;55.20;;;;;;6185389;23;20005;-86
2023/03/28 05:40:10;;;;;;;5.53;2.15;;;10.30;55.40;;;;;;6185555;23;20032;-86
2023/03/28 05:42:37;;;;;;;7.22;2.28;;;10.20;55.10;;;;;;6186772;23;20071;-86
2023/03/28 05:45:05;;;;;;;5.80;2.42;;;10.20;54.40;;;;;;6186447;23;20024;-85
2023/03/28 05:47:31;;;;;;;6.07;2.00;;;10.20;54.10;;;;;;6184858;23;20012;-86
2023/03/28 05:49:57;;;;;;;2.75;1.90;;;10.30;54.20;;;;;;6187022;23;20025;-87
2023/03/28 05:52:22;;;;;;;3.80;2.10;;;10.30;53.90;;;;;;6184754;23;20001;-85
2023/03/28 05:54:48;;;;;;;3.38;1.77;;;10.30;53.00;;;;;;6184981;23;20028;-88
2023/03/28 05:57:14;;;;;;;5.28;2.00;;;10.30;53.30;;;;;;6186244;23;20336;-87
2023/03/28 05:59:40;;;;;;;4.07;2.13;;;10.30;53.40;;;;;;6186191;23;20339;-86
2023/03/28 06:02:15;;;;;;;3.13;1.90;;;10.40;54.00;;;;;;6186531;23;20039;-87
2023/03/28 06:04:41;;;;;;;4.55;2.22;;;10.40;54.30;;;;;;6186086;23;20371;-87
2023/03/28 06:07:08;;;;;;;4.60;1.95;;;10.40;54.00;;;;;;6185710;23;20001;-87
2023/03/28 06:09:34;;;;;;;3.72;1.85;;;10.50;54.10;;;;;;6185123;23;20008;-89
2023/03/28 06:12:01;;;;;;;5.28;2.05;;;10.50;54.50;;;;;;6187198;23;19998;-89
2023/03/28 06:14:28;;;;;;;5.03;1.80;;;10.50;55.00;;;;;;6187300;23;20420;-89
2023/03/28 06:16:54;;;;;;;2.17;1.50;;;10.60;54.50;;;;;;6186479;23;20052;-89
2023/03/28 06:21:50;;;;;;;2.78;1.95;;;10.70;54.00;;;;;;6210759;23;20034;-89
2023/03/28 06:24:16;;;;;;;4.18;1.70;;;10.80;53.90;;;;;;6152783;23;1362155;-90
2023/03/28 06:26:42;;;;;;;2.60;1.45;;;10.80;53.70;;;;;;6215919;23;20083;-90
2023/03/28 06:29:08;;;;;;;1.83;1.27;;;10.80;54.00;;;;;;6216368;23;20001;-89
2023/03/28 06:31:34;;;;;;;3.88;1.40;;;10.80;53.00;;;;;;6188238;23;20385;-86
2023/03/28 06:33:59;;;;;;;2.78;1.40;;;10.90;53.10;;;;;;6215876;23;20008;-84
2023/03/28 06:36:25;;;;;;;3.13;1.20;;;11.10;54.70;;;;;;6207899;23;20011;-85
2023/03/28 06:38:52;;;;;;;3.28;1.33;;;11.20;54.80;;;;;;6214496;23;20465;-85
2023/03/28 06:41:18;;;;;;;2.75;1.05;;;11.30;54.00;;;;;;6215951;23;20001;-83
2023/03/28 06:43:44;;;;;;;2.58;1.10;;;11.50;52.70;;;;;;6215655;23;20495;-85
2023/03/28 06:46:10;;;;;;;2.03;1.10;;;11.50;52.10;;;;;;6215156;23;20316;-88
2023/03/28 06:48:36;;;;;;;1.85;1.17;;;11.50;51.90;;;;;;6189131;23;20066;-87
2023/03/28 06:51:02;;;;;;;2.13;1.13;;;11.70;51.60;;;;;;6213829;23;20001;-86
2023/03/28 06:53:28;;;;;;;3.60;1.27;;;11.60;51.40;;;;;;6215224;23;20128;-88
2023/03/28 06:55:54;;;;;;;2.22;1.15;;;11.80;51.70;;;;;;6212545;23;21055;-88
2023/03/28 06:58:21;;;;;;;1.63;0.85;;;11.80;51.30;;;;;;6215427;23;20047;-88
2023/03/28 07:00:47;;;;;;;1.70;0.90;;;11.80;51.00;;;;;;6216062;23;20051;-88
2023/03/28 07:03:13;;;;;;;4.50;1.13;;;11.90;50.80;;;;;;6215688;23;20000;-88
2023/03/28 07:05:40;;;;;;;2.10;1.10;;;11.90;50.00;;;;;;6189177;23;20032;-88
2023/03/28 07:08:11;;;;;;;2.03;1.17;;;12.00;50.10;;;;;;6215324;23;20005;-87
2023/03/28 07:10:38;;;;;;;1.98;0.93;;;12.20;49.00;;;;;;6213890;23;20016;-80
2023/03/28 07:13:05;;;;;;;2.17;1.20;;;12.20;49.50;;;;;;6214856;23;20051;-82
2023/03/28 07:15:30;;;;;;;2.33;0.98;;;12.20;49.30;;;;;;6188780;23;20014;-81
2023/03/28 07:17:57;;;;;;;0.75;0.60;;;12.30;47.30;;;;;;6187562;23;20330;-80
2023/03/28 07:20:23;;;;;;;1.42;0.60;;;12.30;48.00;;;;;;6213836;23;20449;-81
2023/03/28 07:22:50;;;;;;;1.20;0.63;;;12.40;47.50;;;;;;6213722;23;20119;-81
2023/03/28 07:25:16;;;;;;;1.70;0.77;;;12.50;47.40;;;;;;6214272;23;20075;-81
2023/03/28 07:27:42;;;;;;;1.73;0.63;;;12.50;44.90;;;;;;6213939;23;20012;-82
2023/03/28 07:30:08;;;;;;;0.80;0.60;;;12.60;46.40;;;;;;6212631;23;20087;-82
2023/03/28 07:32:35;;;;;;;1.55;0.77;;;12.70;46.70;;;;;;6214324;23;20082;-81
2023/03/28 07:35:02;;;;;;;3.15;0.73;;;12.70;46.40;;;;;;6212318;23;20004;-82
2023/03/28 07:37:28;;;;;;;0.73;0.55;;;12.80;46.20;;;;;;6213790;23;20010;-82
2023/03/28 07:39:55;;;;;;;2.40;0.70;;;12.90;46.50;;;;;;6188760;23;20091;-81
2023/03/28 07:42:21;;;;;;;3.70;0.75;;;12.90;45.90;;;;;;6214381;23;20009;-81
2023/03/28 07:44:47;;;;;;;4.45;0.98;;;13.20;55.30;;;;;;6189037;23;20004;-77
2023/03/28 07:47:12;;;;;;;0.63;0.60;;;13.30;53.90;;;;;;6215107;23;20012;-78
2023/03/28 07:49:38;;;;;;;1.95;0.95;;;13.40;49.10;;;;;;6188092;23;20088;-79
2023/03/28 07:52:04;;;;;;;2.30;0.90;;;13.60;49.50;;;;;;6214648;23;20001;-77
2023/03/28 07:54:32;;;;;;;2.50;0.88;;;13.60;46.10;;;;;;6214513;23;20004;-76
2023/03/28 07:56:58;;;;;;;1.73;0.85;;;13.70;46.90;;;;;;6213539;23;20063;-77
2023/03/28 07:59:24;;;;;;;1.15;0.70;;;13.80;45.50;;;;;;6214665;23;20027;-76
2023/03/28 08:01:51;;;;;;;1.00;0.60;;;13.80;46.00;;;;;;6188264;23;20423;-77
2023/03/28 08:04:17;;;;;;;1.25;0.75;;;;;;;;;;6213805;23;20024;-77
2023/03/28 08:06:44;;;;;;;1.58;0.80;;;13.90;44.90;;;;;;6213546;23;20030;-77
2023/03/28 08:09:14;;;;;;;1.50;0.70;;;14.00;41.60;;;;;;6213764;23;20004;-77
2023/03/28 08:11:41;;;;;;;1.50;0.60;;;14.00;44.50;;;;;;6213565;23;20019;-78
2023/03/28 08:14:09;;;;;;;1.80;0.70;;;14.10;44.50;;;;;;6213828;23;20295;-77
2023/03/28 08:16:35;;;;;;;1.25;0.60;;;14.20;43.20;;;;;;6214147;23;20012;-77
2023/03/28 08:19:01;;;;;;;1.05;0.52;;;14.20;43.80;;;;;;6214497;23;20422;-77
2023/03/28 08:21:30;;;;;;;1.35;0.60;;;14.30;40.50;;;;;;6214831;23;20076;-77
2023/03/28 08:23:57;;;;;;;0.80;0.47;;;14.30;41.70;;;;;;6215347;23;20078;-77
2023/03/28 08:26:23;;;;;;;1.88;0.60;;;14.40;40.40;;;;;;6215106;23;20060;-81
2023/03/28 08:28:50;;;;;;;1.20;0.50;;;14.40;42.00;;;;;;6215410;23;19996;-81
2023/03/28 08:31:15;;;;;;;0.80;0.40;;;14.60;42.20;;;;;;6217270;23;20063;-77
2023/03/28 08:33:43;;;;;;;0.40;0.30;;;14.70;40.90;;;;;;6217059;23;20000;-77
2023/03/28 08:36:13;;;;;;;0.77;0.40;;;14.80;40.90;;;;;;6216662;23;20000;-76
2023/03/28 08:38:42;;;;;;;0.73;0.43;;;15.00;39.80;;;;;;6215908;23;20047;-76
2023/03/28 08:41:17;;;;;;;0.45;0.30;;;15.00;36.30;;;;;;6215368;23;20000;-77
2023/03/28 08:44:09;;;;;;;0.50;0.30;;;15.10;35.70;;;;;;6188777;23;20047;-76
2023/03/28 08:46:38;;;;;;;1.13;0.40;;;15.10;31.00;;;;;;6215480;23;20019;-76
2023/03/28 08:49:10;;;;;;;0.22;0.22;;;15.30;33.50;;;;;;6216265;23;20000;-76
2023/03/28 08:51:42;;;;;;;0.90;0.30;;;15.30;29.00;;;;;;6215999;23;20001;-75
2023/03/28 08:54:55;;;;;;;1.35;0.30;;;15.30;31.30;;;;;;6215324;23;20304;-76
2023/03/28 08:57:28;;;;;;;0.75;0.30;;;15.50;34.10;;;;;;6102555;23;20011;-76
2023/03/28 09:00:13;;;;;;;0.80;0.32;;;15.60;35.10;;;;;;6215691;23;20008;-76
2023/03/28 09:02:40;;;;;;;0.20;0.20;;;15.80;34.70;;;;;;6215727;23;20004;-76
2023/03/28 09:05:12;;;;;;;0.43;0.30;;;16.00;33.30;;;;;;6215502;23;20054;-76
2023/03/28 09:07:54;;;;;;;0.98;0.40;;;16.10;34.20;;;;;;6215461;23;20008;-76
2023/03/28 09:10:55;;;;;;;0.40;0.40;;;16.40;33.60;;;;;;6215377;23;20013;-76
2023/03/28 09:13:32;;;;;;;;;;;16.40;34.10;;;;;;6089750;23;20012;-81
2023/03/28 09:16:15;;;;;;;2.72;0.35;;;16.60;33.90;;;;;;6214962;23;19900;-76
2023/03/28 09:19:10;;;;;;;4.03;0.63;;;16.80;34.30;;;;;;6215901;23;20080;-77
2023/03/28 09:21:44;;;;;;;1.05;0.35;;;17.00;34.40;;;;;;6217058;23;20043;-78
2023/03/28 09:24:29;;;;;;;0.47;0.25;;;17.20;29.80;;;;;;6215539;23;20004;-77
2023/03/28 09:27:24;;;;;;;0.43;0.30;;;17.20;28.40;;;;;;6215305;23;20504;-77
2023/03/28 09:29:53;;;;;;;0.50;0.22;;;17.30;30.70;;;;;;6188852;23;20004;-77
2023/03/28 09:32:25;;;;;;;0.93;0.20;;;17.40;30.70;;;;;;6215073;23;20377;-77
2023/03/28 09:34:51;;;;;;;0.30;0.30;;;17.50;30.90;;;;;;6214776;23;20037;-76
2023/03/28 09:37:40;;;;;;;0.40;0.30;;;17.70;30.30;;;;;;6215141;23;20008;-77
2023/03/28 09:40:32;;;;;;;2.55;0.40;;;17.70;29.80;;;;;;6215551;23;20005;-77
2023/03/28 09:42:59;;;;;;;0.30;0.30;;;17.70;30.00;;;;;;6208955;23;20015;-77
2023/03/28 09:45:38;;;;;;;0.20;0.20;;;17.80;29.10;;;;;;6188171;23;20062;-77
2023/03/28 09:48:11;;;;;;;0.55;0.30;;;18.00;30.60;;;;;;6214943;23;20427;-77
2023/03/28 09:50:36;;;;;;;0.65;0.50;;;18.10;29.70;;;;;;6215084;23;20001;-77
2023/03/28 09:53:02;;;;;;;0.40;0.40;;;18.20;30.00;;;;;;6215098;23;20007;-77
2023/03/28 09:55:29;;;;;;;0.45;0.30;;;18.50;30.10;;;;;;6214691;23;20076;-77
2023/03/28 09:58:04;;;;;;;0.43;0.30;;;18.60;27.90;;;;;;6188638;23;20009;-77
2023/03/28 10:00:38;;;;;;;0.73;0.32;;;18.70;28.30;;;;;;6215630;23;20042;-78
2023/03/28 10:03:04;;;;;;;0.60;0.50;;;18.70;27.30;;;;;;6215083;23;20387;-76
2023/03/28 10:05:33;;;;;;;0.63;0.40;;;18.80;29.10;;;;;;6188149;23;20012;-76
2023/03/28 10:08:03;;;;;;;1.05;0.50;;;18.90;30.00;;;;;;6214966;23;20004;-75
2023/03/28 10:10:29;;;;;;;0.43;0.38;;;19.00;29.20;;;;;;6215112;23;20016;-84
2023/03/28 10:12:58;;;;;;;0.40;0.20;;;19.10;29.30;;;;;;6216392;23;20417;-84
2023/03/28 10:15:52;;;;;;;1.02;0.32;;;19.30;29.50;;;;;;6216522;23;20001;-84
2023/03/28 10:18:26;;;;;;;0.30;0.30;;;19.50;27.80;;;;;;6215781;23;20080;-83
2023/03/28 10:20:52;;;;;;;0.40;0.32;;;19.70;27.70;;;;;;6216031;23;20315;-85
2023/03/28 10:23:21;;;;;;;0.20;0.20;;;19.70;28.70;;;;;;6216103;23;20004;-84
2023/03/28 10:25:51;;;;;;;0.70;0.30;;;19.80;26.10;;;;;;6215698;23;20047;-83
2023/03/28 10:28:30;;;;;;;2.92;0.50;;;19.80;24.00;;;;;;6216020;23;20060;-82
2023/03/28 10:31:00;;;;;;;3.57;0.50;;;19.70;28.00;;;;;;6215652;23;19997;-83
2023/03/28 10:33:29;;;;;;;0.30;0.30;;;19.90;26.40;;;;;;6215867;23;20095;-82
2023/03/28 10:36:04;;;;;;;0.95;0.40;;;19.90;29.10;;;;;;6216063;23;20023;-82
2023/03/28 10:38:35;;;;;;;6.53;0.40;;;20.00;29.90;;;;;;6217240;23;20056;-85
2023/03/28 10:41:18;;;;;;;2.47;1.00;;;19.90;24.60;;;;;;6218138;23;20001;-85
2023/03/28 10:43:44;;;;;;;3.25;0.50;;;19.80;25.60;;;;;;6218623;23;20011;-85
2023/03/28 10:46:27;;;;;;;0.63;0.40;;;19.60;27.60;;;;;;6217712;23;20025;-84
2023/03/28 10:49:00;;;;;;;0.47;0.30;;;19.80;29.90;;;;;;6218673;23;20001;-84
2023/03/28 10:51:27;;;;;;;0.95;0.65;;;20.00;28.60;;;;;;6217167;23;20004;-84
2023/03/28 10:54:38;;;;;;;0.77;0.30;;;20.30;27.90;;;;;;6215915;23;20079;-84
2023/03/28 10:57:24;;;;;;;0.40;0.35;;;20.30;28.70;;;;;;6176909;23;20023;-84
2023/03/28 11:00:13;;;;;;;1.05;0.30;;;20.50;27.60;;;;;;6215261;23;20004;-85
2023/03/28 11:03:15;;;;;;;1.52;0.50;;;20.60;28.40;;;;;;6215595;23;20001;-83
2023/03/28 11:05:44;;;;;;;0.45;0.38;;;20.70;26.10;;;;;;6215398;23;20005;-83
2023/03/28 11:08:38;;;;;;;0.30;0.28;;;20.60;26.90;;;;;;6186791;23;20047;-78
2023/03/28 11:11:35;;;;;;;0.73;0.40;;;20.80;28.40;;;;;;6214241;23;20012;-78
2023/03/28 11:14:09;;;;;;;0.40;0.40;;;21.10;26.70;;;;;;6214064;23;20004;-78
2023/03/28 11:16:59;;;;;;;1.65;0.50;;;21.20;27.60;;;;;;6187652;23;20819;-79
2023/03/28 11:19:31;;;;;;;0.90;0.50;;;21.30;26.10;;;;;;6213723;23;20001;-78
2023/03/28 11:22:05;;;;;;;0.47;0.40;;;21.30;26.90;;;;;;6214293;23;20049;-79
2023/03/28 11:24:31;;;;;;;0.82;0.52;;;21.50;25.70;;;;;;6214328;23;20005;-78
2023/03/28 11:27:08;;;;;;;1.27;0.47;;;21.50;26.10;;;;;;6212925;23;20082;-79
2023/03/28 11:29:40;;;;;;;0.28;0.28;;;21.60;26.30;;;;;;6214319;23;20061;-78
2023/03/28 11:32:17;;;;;;;0.57;0.40;;;21.60;27.20;;;;;;6213511;23;20401;-79
2023/03/28 11:35:20;;;;;;;0.50;0.30;;;21.80;25.80;;;;;;6211926;23;20039;-81
2023/03/28 11:38:11;;;;;;;1.00;0.57;;;22.10;26.40;;;;;;6218080;23;20000;-78
2023/03/28 11:40:50;;;;;;;0.50;0.30;;;22.70;25.90;;;;;;6219976;23;20032;-80
2023/03/28 11:43:26;;;;;;;0.35;0.30;;;24.00;25.20;;;;;;6194145;23;20004;-85
2023/03/28 11:46:02;;;;;;;1.33;0.40;;;25.10;23.90;;;;;;6221083;23;20746;-78
2023/03/28 11:48:42;;;;;;;0.70;0.50;;;26.50;24.30;;;;;;6196469;23;20087;-86
2023/03/28 11:51:26;;;;;;;2.13;0.43;;;27.80;23.80;;;;;;6193744;23;20087;-87
2023/03/28 11:54:10;;;;;;;0.73;0.50;;;29.00;23.30;;;;;;6216694;23;20004;-80
2023/03/28 11:56:52;;;;;;;2.08;0.52;;;30.00;22.60;;;;;;6214395;23;20012;-82
2023/03/28 11:59:34;;;;;;;1.30;0.70;;;30.70;23.30;;;;;;6215386;23;20001;-81
2023/03/28 12:02:21;;;;;;;0.90;0.45;;;31.10;22.80;;;;;;6215515;23;20001;-81
2023/03/28 12:04:58;;;;;;;0.57;0.50;;;31.40;22.40;;;;;;6214677;23;20008;-81
2023/03/28 12:07:30;;;;;;;1.80;0.70;;;31.40;22.20;;;;;;6214280;23;20407;-77
2023/03/28 12:10:35;;;;;;;1.02;0.70;;;30.60;20.00;;;;;;6187165;23;20013;-76
2023/03/28 12:13:16;;;;;;;1.20;0.70;;;30.80;21.30;;;;;;6210928;23;20363;-81
2023/03/28 12:16:04;;;;;;;0.85;0.50;;;30.80;21.20;;;;;;6214982;23;20099;-80
2023/03/28 12:18:40;;;;;;;1.20;0.70;;;30.70;22.60;;;;;;6214250;23;20001;-81
2023/03/28 12:21:18;;;;;;;3.53;0.60;;;30.60;22.30;;;;;;6214194;23;20013;-81
2023/03/28 12:24:12;;;;;;;0.90;0.52;;;30.30;22.20;;;;;;6214556;23;20947;-82
2023/03/28 12:27:15;;;;;;;0.70;0.50;;;29.80;21.40;;;;;;6214425;23;20420;-81
2023/03/28 12:30:04;;;;;;;0.70;0.60;;;29.80;21.70;;;;;;6214175;23;19996;-82
2023/03/28 12:32:40;;;;;;;1.25;0.80;;;29.80;20.60;;;;;;6212768;23;20435;-81
2023/03/28 12:35:16;;;;;;;1.10;0.60;;;30.00;21.20;;;;;;6212007;23;20001;-80
2023/03/28 12:38:04;;;;;;;0.73;0.60;;;30.20;20.70;;;;;;6213793;23;20424;-80
2023/03/28 12:40:57;;;;;;;1.95;0.70;;;30.30;21.10;;;;;;6214026;23;20124;-80
2023/03/28 12:43:50;;;;;;;2.25;0.80;;;30.40;20.10;;;;;;6213090;23;20308;-80
2023/03/28 12:46:23;;;;;;;1.95;0.70;;;30.60;21.10;;;;;;6213406;23;20008;-81
2023/03/28 12:49:02;;;;;;;1.55;0.93;;;30.90;21.60;;;;;;6213834;23;20032;-76
2023/03/28 12:51:50;;;;;;;1.85;0.88;;;31.10;21.10;;;;;;6213531;23;20747;-76
2023/03/28 12:54:15;;;;;;;0.70;0.68;;;31.30;20.70;;;;;;6214016;23;20003;-76
2023/03/28 12:56:46;;;;;;;1.73;1.10;;;31.50;19.90;;;;;;6213993;23;20032;-76
2023/03/28 12:59:34;;;;;;;0.80;0.80;;;31.50;20.10;;;;;;6211648;23;20406;-76
2023/03/28 13:02:09;;;;;;;0.80;0.60;;;31.50;20.20;;;;;;6214920;23;20005;-76
2023/03/28 13:04:42;;;;;;;0.80;0.80;;;31.60;19.80;;;;;;6215324;23;20009;-76
2023/03/28 13:07:28;;;;;;;3.53;0.80;;;31.70;20.60;;;;;;6215379;23;20071;-76
2023/03/28 13:10:06;;;;;;;0.68;0.68;;;31.80;20.10;;;;;;6214036;23;20028;-76
2023/03/28 13:12:54;;;;;;;1.27;0.60;;;31.80;20.20;;;;;;6213282;23;20331;-76
2023/03/28 13:15:24;;;;;;;3.20;0.80;;;31.20;19.30;;;;;;6214103;23;20478;-76
2023/03/28 13:18:16;;;;;;;1.45;0.70;;;30.40;19.60;;;;;;6214304;23;20004;-76
2023/03/28 13:20:52;;;;;;;1.13;0.50;;;29.50;19.10;;;;;;6214023;23;20009;-76